sensor_id;sensor_type;location;lat;lon;timestamp;P1;durP1;ratioP1;P2;durP2;ratioP2
68923;SDS011;55961;52.156;20.942;2023-02-28T00:01:19;31.30;;;11.30;;
68923;SDS011;55961;52.156;20.942;2023-02-28T00:03:46;26.85;;;10.43;;
68923;SDS011;55961;52.156;20.942;2023-02-28T00:06:12;23.98;;;10.68;;
68923;SDS011;55961;52.156;20.942;2023-02-28T00:08:38;25.98;;;10.82;;
68923;SDS011;55961;52.156;20.942;2023-02-28T00:11:05;29.50;;;11.43;;
68923;SDS011;55961;52.156;20.942;2023-02-28T00:13:37;32.53;;;12.23;;
68923;SDS011;55961;52.156;20.942;2023-02-28T00:16:06;27.10;;;11.30;;
68923;SDS011;55961;52.156;20.942;2023-02-28T00:18:34;27.38;;;12.20;;
68923;SDS011;55961;52.156;20.942;2023-02-28T00:21:00;32.13;;;13.17;;
68923;SDS011;55961;52.156;20.942;2023-02-28T00:23:27;27.75;;;11.20;;
68923;SDS011;55961;52.156;20.942;2023-02-28T00:25:53;26.50;;;11.70;;
68923;SDS011;55961;52.156;20.942;2023-02-28T00:28:20;27.63;;;11.35;;
68923;SDS011;55961;52.156;20.942;2023-02-28T00:30:46;28.10;;;10.90;;
68923;SDS011;55961;52.156;20.942;2023-02-28T00:33:12;24.60;;;10.43;;
68923;SDS011;55961;52.156;20.942;2023-02-28T00:35:38;27.50;;;11.30;;
68923;SDS011;55961;52.156;20.942;2023-02-28T00:38:04;28.98;;;11.00;;
68923;SDS011;55961;52.156;20.942;2023-02-28T00:40:30;21.45;;;9.57;;
68923;SDS011;55961;52.156;20.942;2023-02-28T00:42:57;24.13;;;10.05;;
68923;SDS011;55961;52.156;20.942;2023-02-28T00:45:23;31.70;;;10.83;;
68923;SDS011;55961;52.156;20.942;2023-02-28T00:47:49;26.10;;;10.10;;
68923;SDS011;55961;52.156;20.942;2023-02-28T00:50:18;25.48;;;10.15;;
68923;SDS011;55961;52.156;20.942;2023-02-28T00:52:45;27.15;;;10.05;;
68923;SDS011;55961;52.156;20.942;2023-02-28T00:55:12;23.37;;;9.10;;
68923;SDS011;55961;52.156;20.942;2023-02-28T00:57:38;25.80;;;9.90;;
68923;SDS011;55961;52.156;20.942;2023-02-28T01:00:04;23.10;;;9.75;;
68923;SDS011;55961;52.156;20.942;2023-02-28T01:02:31;21.35;;;8.88;;
68923;SDS011;55961;52.156;20.942;2023-02-28T01:04:57;26.70;;;9.67;;
68923;SDS011;55961;52.156;20.942;2023-02-28T01:07:23;25.92;;;9.68;;
68923;SDS011;55961;52.156;20.942;2023-02-28T01:09:49;26.40;;;9.45;;
68923;SDS011;55961;52.156;20.942;2023-02-28T01:12:15;23.07;;;8.57;;
68923;SDS011;55961;52.156;20.942;2023-02-28T01:14:41;24.30;;;9.45;;
68923;SDS011;55961;52.156;20.942;2023-02-28T01:17:07;25.80;;;9.93;;
68923;SDS011;55961;52.156;20.942;2023-02-28T01:19:33;24.48;;;9.43;;
68923;SDS011;55961;52.156;20.942;2023-02-28T01:22:04;22.02;;;9.45;;
68923;SDS011;55961;52.156;20.942;2023-02-28T01:24:31;24.33;;;8.77;;
68923;SDS011;55961;52.156;20.942;2023-02-28T01:26:58;24.08;;;10.50;;
68923;SDS011;55961;52.156;20.942;2023-02-28T01:29:24;24.75;;;9.40;;
68923;SDS011;55961;52.156;20.942;2023-02-28T01:31:50;25.55;;;9.80;;
68923;SDS011;55961;52.156;20.942;2023-02-28T01:34:17;26.93;;;9.33;;
68923;SDS011;55961;52.156;20.942;2023-02-28T01:36:44;26.92;;;9.82;;
68923;SDS011;55961;52.156;20.942;2023-02-28T01:39:11;23.83;;;9.32;;
68923;SDS011;55961;52.156;20.942;2023-02-28T01:41:38;23.75;;;9.57;;
68923;SDS011;55961;52.156;20.942;2023-02-28T01:44:06;22.33;;;9.43;;
68923;SDS011;55961;52.156;20.942;2023-02-28T01:46:50;26.17;;;9.40;;
68923;SDS011;55961;52.156;20.942;2023-02-28T01:49:16;23.17;;;9.10;;
68923;SDS011;55961;52.156;20.942;2023-02-28T01:51:45;22.63;;;9.23;;
68923;SDS011;55961;52.156;20.942;2023-02-28T01:54:18;26.75;;;8.98;;
68923;SDS011;55961;52.156;20.942;2023-02-28T01:56:55;22.23;;;9.10;;
68923;SDS011;55961;52.156;20.942;2023-02-28T01:59:29;26.13;;;9.05;;
68923;SDS011;55961;52.156;20.942;2023-02-28T02:02:03;23.20;;;9.25;;
68923;SDS011;55961;52.156;20.942;2023-02-28T02:04:38;23.67;;;9.23;;
68923;SDS011;55961;52.156;20.942;2023-02-28T02:07:06;29.15;;;9.45;;
68923;SDS011;55961;52.156;20.942;2023-02-28T02:09:33;26.30;;;9.10;;
68923;SDS011;55961;52.156;20.942;2023-02-28T02:11:59;21.58;;;8.43;;
68923;SDS011;55961;52.156;20.942;2023-02-28T02:17:24;29.23;;;8.57;;
68923;SDS011;55961;52.156;20.942;2023-02-28T02:28:36;21.83;;;8.43;;
68923;SDS011;55961;52.156;20.942;2023-02-28T02:42:13;24.45;;;8.00;;
68923;SDS011;55961;52.156;20.942;2023-02-28T02:45:07;18.60;;;6.90;;
68923;SDS011;55961;52.156;20.942;2023-02-28T02:47:34;18.05;;;7.45;;
68923;SDS011;55961;52.156;20.942;2023-02-28T02:50:02;25.50;;;8.23;;
68923;SDS011;55961;52.156;20.942;2023-02-28T02:52:37;18.98;;;7.75;;
68923;SDS011;55961;52.156;20.942;2023-02-28T02:55:06;18.40;;;7.65;;
68923;SDS011;55961;52.156;20.942;2023-02-28T02:57:38;19.57;;;7.80;;
68923;SDS011;55961;52.156;20.942;2023-02-28T03:00:11;22.13;;;7.88;;
68923;SDS011;55961;52.156;20.942;2023-02-28T03:02:39;19.42;;;7.57;;
68923;SDS011;55961;52.156;20.942;2023-02-28T03:05:08;20.95;;;7.57;;
68923;SDS011;55961;52.156;20.942;2023-02-28T03:07:42;23.27;;;7.18;;
68923;SDS011;55961;52.156;20.942;2023-02-28T03:10:27;17.90;;;7.73;;
68923;SDS011;55961;52.156;20.942;2023-02-28T03:24:32;23.40;;;7.53;;
68923;SDS011;55961;52.156;20.942;2023-02-28T03:27:08;22.13;;;8.15;;
68923;SDS011;55961;52.156;20.942;2023-02-28T03:30:00;26.80;;;8.40;;
68923;SDS011;55961;52.156;20.942;2023-02-28T03:32:33;20.88;;;7.32;;
68923;SDS011;55961;52.156;20.942;2023-02-28T03:37:40;23.60;;;7.67;;
68923;SDS011;55961;52.156;20.942;2023-02-28T03:40:08;20.33;;;8.02;;
68923;SDS011;55961;52.156;20.942;2023-02-28T03:42:41;21.42;;;7.65;;
68923;SDS011;55961;52.156;20.942;2023-02-28T03:45:15;21.42;;;7.93;;
68923;SDS011;55961;52.156;20.942;2023-02-28T03:47:53;20.98;;;8.15;;
68923;SDS011;55961;52.156;20.942;2023-02-28T03:50:26;22.30;;;8.77;;
68923;SDS011;55961;52.156;20.942;2023-02-28T03:53:04;28.08;;;9.00;;
68923;SDS011;55961;52.156;20.942;2023-02-28T03:55:42;23.55;;;9.98;;
68923;SDS011;55961;52.156;20.942;2023-02-28T03:58:44;23.35;;;9.75;;
68923;SDS011;55961;52.156;20.942;2023-02-28T04:01:45;30.45;;;10.20;;
68923;SDS011;55961;52.156;20.942;2023-02-28T04:04:07;27.17;;;9.83;;
68923;SDS011;55961;52.156;20.942;2023-02-28T04:06:34;25.65;;;9.40;;
68923;SDS011;55961;52.156;20.942;2023-02-28T04:09:01;21.55;;;8.55;;
68923;SDS011;55961;52.156;20.942;2023-02-28T04:11:38;23.23;;;9.35;;
68923;SDS011;55961;52.156;20.942;2023-02-28T04:14:13;25.23;;;9.40;;
68923;SDS011;55961;52.156;20.942;2023-02-28T04:16:40;32.33;;;11.30;;
68923;SDS011;55961;52.156;20.942;2023-02-28T04:19:08;33.60;;;11.25;;
68923;SDS011;55961;52.156;20.942;2023-02-28T04:21:36;31.90;;;11.73;;
68923;SDS011;55961;52.156;20.942;2023-02-28T04:24:10;26.40;;;10.90;;
68923;SDS011;55961;52.156;20.942;2023-02-28T04:26:48;33.83;;;11.23;;
68923;SDS011;55961;52.156;20.942;2023-02-28T04:29:23;25.10;;;10.03;;
68923;SDS011;55961;52.156;20.942;2023-02-28T04:31:51;30.48;;;9.93;;
68923;SDS011;55961;52.156;20.942;2023-02-28T04:34:19;29.40;;;11.02;;
68923;SDS011;55961;52.156;20.942;2023-02-28T04:36:46;32.00;;;11.77;;
68923;SDS011;55961;52.156;20.942;2023-02-28T04:39:15;35.90;;;12.07;;
68923;SDS011;55961;52.156;20.942;2023-02-28T04:41:43;42.20;;;15.13;;
68923;SDS011;55961;52.156;20.942;2023-02-28T04:44:10;47.72;;;15.80;;
68923;SDS011;55961;52.156;20.942;2023-02-28T04:46:36;46.15;;;16.15;;
68923;SDS011;55961;52.156;20.942;2023-02-28T04:49:02;46.35;;;16.95;;
68923;SDS011;55961;52.156;20.942;2023-02-28T04:51:28;43.83;;;17.03;;
68923;SDS011;55961;52.156;20.942;2023-02-28T04:53:54;42.55;;;15.68;;
68923;SDS011;55961;52.156;20.942;2023-02-28T04:56:20;43.25;;;15.77;;
68923;SDS011;55961;52.156;20.942;2023-02-28T04:58:47;36.22;;;15.68;;
68923;SDS011;55961;52.156;20.942;2023-02-28T05:01:17;40.37;;;15.03;;
68923;SDS011;55961;52.156;20.942;2023-02-28T05:03:51;45.17;;;16.05;;
68923;SDS011;55961;52.156;20.942;2023-02-28T05:06:19;38.60;;;14.32;;
68923;SDS011;55961;52.156;20.942;2023-02-28T05:08:46;39.58;;;15.38;;
68923;SDS011;55961;52.156;20.942;2023-02-28T05:11:34;41.25;;;14.55;;
68923;SDS011;55961;52.156;20.942;2023-02-28T05:14:06;35.57;;;13.73;;
68923;SDS011;55961;52.156;20.942;2023-02-28T05:16:35;39.40;;;14.68;;
68923;SDS011;55961;52.156;20.942;2023-02-28T05:19:01;44.50;;;18.33;;
68923;SDS011;55961;52.156;20.942;2023-02-28T05:21:28;44.42;;;17.02;;
68923;SDS011;55961;52.156;20.942;2023-02-28T05:24:10;43.42;;;17.80;;
68923;SDS011;55961;52.156;20.942;2023-02-28T05:26:38;49.43;;;20.60;;
68923;SDS011;55961;52.156;20.942;2023-02-28T05:29:06;51.92;;;18.95;;
68923;SDS011;55961;52.156;20.942;2023-02-28T05:31:32;46.35;;;19.20;;
68923;SDS011;55961;52.156;20.942;2023-02-28T05:33:59;52.38;;;22.95;;
68923;SDS011;55961;52.156;20.942;2023-02-28T05:36:25;61.10;;;25.45;;
68923;SDS011;55961;52.156;20.942;2023-02-28T05:38:51;73.80;;;27.03;;
68923;SDS011;55961;52.156;20.942;2023-02-28T05:41:17;69.70;;;25.73;;
68923;SDS011;55961;52.156;20.942;2023-02-28T05:43:45;66.53;;;26.60;;
68923;SDS011;55961;52.156;20.942;2023-02-28T05:46:12;64.00;;;26.70;;
68923;SDS011;55961;52.156;20.942;2023-02-28T05:48:38;66.80;;;26.10;;
68923;SDS011;55961;52.156;20.942;2023-02-28T05:51:06;62.85;;;26.50;;
68923;SDS011;55961;52.156;20.942;2023-02-28T05:53:32;70.82;;;28.25;;
68923;SDS011;55961;52.156;20.942;2023-02-28T05:55:59;73.90;;;26.55;;
68923;SDS011;55961;52.156;20.942;2023-02-28T05:58:26;70.78;;;28.52;;
68923;SDS011;55961;52.156;20.942;2023-02-28T06:00:56;65.07;;;25.83;;
68923;SDS011;55961;52.156;20.942;2023-02-28T06:03:25;68.50;;;26.50;;
68923;SDS011;55961;52.156;20.942;2023-02-28T06:05:51;61.28;;;24.67;;
68923;SDS011;55961;52.156;20.942;2023-02-28T06:08:17;65.18;;;26.52;;
68923;SDS011;55961;52.156;20.942;2023-02-28T06:10:43;71.63;;;26.20;;
68923;SDS011;55961;52.156;20.942;2023-02-28T06:13:10;60.78;;;24.13;;
68923;SDS011;55961;52.156;20.942;2023-02-28T06:15:38;66.00;;;27.17;;
68923;SDS011;55961;52.156;20.942;2023-02-28T06:18:04;69.30;;;26.60;;
68923;SDS011;55961;52.156;20.942;2023-02-28T06:20:30;75.95;;;28.95;;
68923;SDS011;55961;52.156;20.942;2023-02-28T06:22:56;58.60;;;24.80;;
68923;SDS011;55961;52.156;20.942;2023-02-28T06:25:26;60.67;;;24.73;;
68923;SDS011;55961;52.156;20.942;2023-02-28T06:27:53;55.22;;;22.77;;
68923;SDS011;55961;52.156;20.942;2023-02-28T06:30:19;47.65;;;20.40;;
68923;SDS011;55961;52.156;20.942;2023-02-28T06:32:50;46.50;;;19.98;;
68923;SDS011;55961;52.156;20.942;2023-02-28T06:35:15;50.93;;;17.43;;
68923;SDS011;55961;52.156;20.942;2023-02-28T06:37:42;36.00;;;14.13;;
68923;SDS011;55961;52.156;20.942;2023-02-28T06:40:09;27.55;;;10.75;;
68923;SDS011;55961;52.156;20.942;2023-02-28T06:42:36;22.55;;;9.65;;
68923;SDS011;55961;52.156;20.942;2023-02-28T06:45:01;25.80;;;10.23;;
68923;SDS011;55961;52.156;20.942;2023-02-28T06:47:34;24.98;;;10.77;;
68923;SDS011;55961;52.156;20.942;2023-02-28T06:50:01;20.17;;;9.38;;
68923;SDS011;55961;52.156;20.942;2023-02-28T06:52:28;17.37;;;8.37;;
68923;SDS011;55961;52.156;20.942;2023-02-28T06:54:54;15.95;;;6.70;;
68923;SDS011;55961;52.156;20.942;2023-02-28T06:57:31;13.98;;;5.93;;
68923;SDS011;55961;52.156;20.942;2023-02-28T06:59:59;15.73;;;6.28;;
68923;SDS011;55961;52.156;20.942;2023-02-28T07:02:26;13.55;;;6.47;;
68923;SDS011;55961;52.156;20.942;2023-02-28T07:04:52;12.87;;;6.30;;
68923;SDS011;55961;52.156;20.942;2023-02-28T07:07:18;18.98;;;7.53;;
68923;SDS011;55961;52.156;20.942;2023-02-28T07:09:45;15.05;;;7.40;;
68923;SDS011;55961;52.156;20.942;2023-02-28T07:12:11;18.00;;;6.88;;
68923;SDS011;55961;52.156;20.942;2023-02-28T07:14:36;16.83;;;6.50;;
68923;SDS011;55961;52.156;20.942;2023-02-28T07:17:03;14.07;;;6.65;;
68923;SDS011;55961;52.156;20.942;2023-02-28T07:19:29;17.60;;;7.43;;
68923;SDS011;55961;52.156;20.942;2023-02-28T07:21:55;15.57;;;6.18;;
68923;SDS011;55961;52.156;20.942;2023-02-28T07:24:21;11.67;;;5.13;;
68923;SDS011;55961;52.156;20.942;2023-02-28T07:26:49;15.18;;;6.18;;
68923;SDS011;55961;52.156;20.942;2023-02-28T07:29:14;14.80;;;5.82;;
68923;SDS011;55961;52.156;20.942;2023-02-28T07:31:40;11.97;;;5.17;;
68923;SDS011;55961;52.156;20.942;2023-02-28T07:34:06;10.45;;;4.95;;
68923;SDS011;55961;52.156;20.942;2023-02-28T07:36:32;9.77;;;4.40;;
68923;SDS011;55961;52.156;20.942;2023-02-28T07:38:58;9.73;;;5.03;;
68923;SDS011;55961;52.156;20.942;2023-02-28T07:41:24;11.80;;;4.63;;
68923;SDS011;55961;52.156;20.942;2023-02-28T07:43:53;16.73;;;5.40;;
68923;SDS011;55961;52.156;20.942;2023-02-28T07:46:20;15.90;;;7.07;;
68923;SDS011;55961;52.156;20.942;2023-02-28T07:48:46;16.37;;;7.43;;
68923;SDS011;55961;52.156;20.942;2023-02-28T07:51:12;12.10;;;6.00;;
68923;SDS011;55961;52.156;20.942;2023-02-28T07:53:38;10.85;;;5.70;;
68923;SDS011;55961;52.156;20.942;2023-02-28T07:56:04;19.00;;;6.40;;
68923;SDS011;55961;52.156;20.942;2023-02-28T07:58:31;13.13;;;5.17;;
68923;SDS011;55961;52.156;20.942;2023-02-28T08:00:57;11.82;;;5.40;;
68923;SDS011;55961;52.156;20.942;2023-02-28T08:03:31;13.23;;;4.93;;
68923;SDS011;55961;52.156;20.942;2023-02-28T08:05:57;15.80;;;6.05;;
68923;SDS011;55961;52.156;20.942;2023-02-28T08:08:22;13.77;;;6.23;;
68923;SDS011;55961;52.156;20.942;2023-02-28T08:10:48;14.15;;;6.45;;
68923;SDS011;55961;52.156;20.942;2023-02-28T08:13:14;16.20;;;6.20;;
68923;SDS011;55961;52.156;20.942;2023-02-28T08:15:41;14.93;;;6.07;;
68923;SDS011;55961;52.156;20.942;2023-02-28T08:18:08;13.20;;;5.82;;
68923;SDS011;55961;52.156;20.942;2023-02-28T08:20:34;14.55;;;6.28;;
68923;SDS011;55961;52.156;20.942;2023-02-28T08:22:59;14.48;;;5.93;;
68923;SDS011;55961;52.156;20.942;2023-02-28T08:25:25;13.07;;;5.23;;
68923;SDS011;55961;52.156;20.942;2023-02-28T08:27:51;11.57;;;5.13;;
68923;SDS011;55961;52.156;20.942;2023-02-28T08:30:18;11.63;;;5.32;;
68923;SDS011;55961;52.156;20.942;2023-02-28T08:32:44;12.10;;;5.53;;
68923;SDS011;55961;52.156;20.942;2023-02-28T08:35:10;11.93;;;4.90;;
68923;SDS011;55961;52.156;20.942;2023-02-28T08:37:36;12.23;;;5.07;;
68923;SDS011;55961;52.156;20.942;2023-02-28T08:40:02;12.77;;;5.32;;
68923;SDS011;55961;52.156;20.942;2023-02-28T08:42:29;10.25;;;4.13;;
68923;SDS011;55961;52.156;20.942;2023-02-28T08:44:55;12.47;;;5.20;;
68923;SDS011;55961;52.156;20.942;2023-02-28T08:47:21;10.23;;;4.50;;
68923;SDS011;55961;52.156;20.942;2023-02-28T08:49:47;12.00;;;4.50;;
68923;SDS011;55961;52.156;20.942;2023-02-28T08:52:13;14.07;;;4.90;;
68923;SDS011;55961;52.156;20.942;2023-02-28T08:54:39;12.37;;;4.90;;
68923;SDS011;55961;52.156;20.942;2023-02-28T08:57:05;9.07;;;3.20;;
68923;SDS011;55961;52.156;20.942;2023-02-28T08:59:31;12.20;;;4.50;;
68923;SDS011;55961;52.156;20.942;2023-02-28T09:01:57;10.82;;;5.70;;
68923;SDS011;55961;52.156;20.942;2023-02-28T09:04:23;9.17;;;4.27;;
68923;SDS011;55961;52.156;20.942;2023-02-28T09:06:49;15.10;;;5.40;;
68923;SDS011;55961;52.156;20.942;2023-02-28T09:09:15;10.88;;;5.22;;
68923;SDS011;55961;52.156;20.942;2023-02-28T09:11:41;10.75;;;5.40;;
68923;SDS011;55961;52.156;20.942;2023-02-28T09:14:07;10.73;;;5.80;;
68923;SDS011;55961;52.156;20.942;2023-02-28T09:16:33;12.65;;;5.60;;
68923;SDS011;55961;52.156;20.942;2023-02-28T09:19:00;15.13;;;5.55;;
68923;SDS011;55961;52.156;20.942;2023-02-28T09:21:26;11.90;;;5.38;;
68923;SDS011;55961;52.156;20.942;2023-02-28T09:23:53;11.17;;;5.50;;
68923;SDS011;55961;52.156;20.942;2023-02-28T09:26:20;12.57;;;5.20;;
68923;SDS011;55961;52.156;20.942;2023-02-28T09:28:48;11.95;;;5.45;;
68923;SDS011;55961;52.156;20.942;2023-02-28T09:31:19;11.02;;;5.50;;
68923;SDS011;55961;52.156;20.942;2023-02-28T09:33:47;13.18;;;5.57;;
68923;SDS011;55961;52.156;20.942;2023-02-28T09:36:14;11.17;;;5.83;;
68923;SDS011;55961;52.156;20.942;2023-02-28T09:38:40;12.50;;;5.50;;
68923;SDS011;55961;52.156;20.942;2023-02-28T09:41:16;10.18;;;5.57;;
68923;SDS011;55961;52.156;20.942;2023-02-28T09:43:58;12.00;;;5.10;;
68923;SDS011;55961;52.156;20.942;2023-02-28T09:46:29;11.13;;;5.37;;
68923;SDS011;55961;52.156;20.942;2023-02-28T09:48:58;14.18;;;5.00;;
68923;SDS011;55961;52.156;20.942;2023-02-28T09:54:34;9.75;;;4.63;;
68923;SDS011;55961;52.156;20.942;2023-02-28T10:05:08;10.98;;;5.55;;
68923;SDS011;55961;52.156;20.942;2023-02-28T10:13:17;11.90;;;5.27;;
68923;SDS011;55961;52.156;20.942;2023-02-28T10:15:50;10.27;;;5.55;;
68923;SDS011;55961;52.156;20.942;2023-02-28T10:18:21;11.45;;;5.57;;
68923;SDS011;55961;52.156;20.942;2023-02-28T10:20:55;9.65;;;5.13;;
68923;SDS011;55961;52.156;20.942;2023-02-28T10:23:23;11.68;;;6.03;;
68923;SDS011;55961;52.156;20.942;2023-02-28T10:25:58;11.97;;;6.00;;
68923;SDS011;55961;52.156;20.942;2023-02-28T10:28:29;15.90;;;6.30;;
68923;SDS011;55961;52.156;20.942;2023-02-28T10:30:56;11.18;;;6.45;;
68923;SDS011;55961;52.156;20.942;2023-02-28T10:33:24;10.80;;;5.43;;
68923;SDS011;55961;52.156;20.942;2023-02-28T10:35:54;14.02;;;6.55;;
68923;SDS011;55961;52.156;20.942;2023-02-28T10:38:25;11.73;;;6.27;;
68923;SDS011;55961;52.156;20.942;2023-02-28T10:41:05;13.93;;;7.80;;
68923;SDS011;55961;52.156;20.942;2023-02-28T10:43:33;14.50;;;8.10;;
68923;SDS011;55961;52.156;20.942;2023-02-28T10:51:15;13.37;;;7.53;;
68923;SDS011;55961;52.156;20.942;2023-02-28T11:01:14;13.33;;;8.10;;
68923;SDS011;55961;52.156;20.942;2023-02-28T11:03:42;14.05;;;8.50;;
68923;SDS011;55961;52.156;20.942;2023-02-28T11:06:41;15.57;;;8.73;;
68923;SDS011;55961;52.156;20.942;2023-02-28T11:09:15;15.65;;;8.48;;
68923;SDS011;55961;52.156;20.942;2023-02-28T11:11:48;16.60;;;8.13;;
68923;SDS011;55961;52.156;20.942;2023-02-28T11:14:19;16.93;;;8.37;;
68923;SDS011;55961;52.156;20.942;2023-02-28T11:16:59;15.52;;;8.18;;
68923;SDS011;55961;52.156;20.942;2023-02-28T11:19:39;12.95;;;7.82;;
68923;SDS011;55961;52.156;20.942;2023-02-28T11:22:09;15.10;;;8.63;;
68923;SDS011;55961;52.156;20.942;2023-02-28T11:24:37;13.88;;;8.48;;
68923;SDS011;55961;52.156;20.942;2023-02-28T11:27:24;15.43;;;8.77;;
68923;SDS011;55961;52.156;20.942;2023-02-28T11:29:59;16.60;;;8.65;;
68923;SDS011;55961;52.156;20.942;2023-02-28T11:32:29;15.13;;;9.20;;
68923;SDS011;55961;52.156;20.942;2023-02-28T11:35:14;21.33;;;9.68;;
68923;SDS011;55961;52.156;20.942;2023-02-28T11:37:47;14.95;;;7.72;;
68923;SDS011;55961;52.156;20.942;2023-02-28T11:40:14;13.53;;;7.90;;
68923;SDS011;55961;52.156;20.942;2023-02-28T11:48:04;15.52;;;7.47;;
68923;SDS011;55961;52.156;20.942;2023-02-28T11:50:49;16.15;;;8.15;;
68923;SDS011;55961;52.156;20.942;2023-02-28T11:56:31;14.70;;;7.93;;
68923;SDS011;55961;52.156;20.942;2023-02-28T12:04:25;11.90;;;6.85;;
68923;SDS011;55961;52.156;20.942;2023-02-28T12:07:06;13.67;;;8.13;;
68923;SDS011;55961;52.156;20.942;2023-02-28T12:10:11;13.63;;;7.75;;
68923;SDS011;55961;52.156;20.942;2023-02-28T12:15:36;12.10;;;7.25;;
68923;SDS011;55961;52.156;20.942;2023-02-28T12:28:51;15.23;;;7.78;;
68923;SDS011;55961;52.156;20.942;2023-02-28T12:31:29;15.93;;;7.88;;
68923;SDS011;55961;52.156;20.942;2023-02-28T12:34:01;12.37;;;7.20;;
68923;SDS011;55961;52.156;20.942;2023-02-28T12:36:31;14.65;;;7.75;;
68923;SDS011;55961;52.156;20.942;2023-02-28T12:39:02;12.23;;;7.60;;
68923;SDS011;55961;52.156;20.942;2023-02-28T12:41:51;14.25;;;7.43;;
68923;SDS011;55961;52.156;20.942;2023-02-28T12:47:15;15.43;;;7.63;;
68923;SDS011;55961;52.156;20.942;2023-02-28T12:50:15;13.63;;;7.68;;
68923;SDS011;55961;52.156;20.942;2023-02-28T13:09:36;11.82;;;6.82;;
68923;SDS011;55961;52.156;20.942;2023-02-28T13:12:12;16.05;;;8.27;;
68923;SDS011;55961;52.156;20.942;2023-02-28T13:14:42;12.30;;;7.67;;
68923;SDS011;55961;52.156;20.942;2023-02-28T13:19:36;15.73;;;8.60;;
68923;SDS011;55961;52.156;20.942;2023-02-28T13:27:59;18.63;;;10.10;;
68923;SDS011;55961;52.156;20.942;2023-02-28T13:33:33;13.38;;;7.55;;
68923;SDS011;55961;52.156;20.942;2023-02-28T13:38:45;14.15;;;6.43;;
68923;SDS011;55961;52.156;20.942;2023-02-28T13:46:24;13.27;;;7.70;;
68923;SDS011;55961;52.156;20.942;2023-02-28T13:48:50;18.70;;;8.07;;
68923;SDS011;55961;52.156;20.942;2023-02-28T13:51:39;11.97;;;7.63;;
68923;SDS011;55961;52.156;20.942;2023-02-28T13:54:20;15.68;;;7.78;;
68923;SDS011;55961;52.156;20.942;2023-02-28T14:05:17;15.73;;;10.50;;
68923;SDS011;55961;52.156;20.942;2023-02-28T14:07:49;16.27;;;8.60;;
68923;SDS011;55961;52.156;20.942;2023-02-28T14:10:28;14.38;;;8.30;;
68923;SDS011;55961;52.156;20.942;2023-02-28T14:12:59;16.20;;;8.40;;
68923;SDS011;55961;52.156;20.942;2023-02-28T14:18:02;17.47;;;8.43;;
68923;SDS011;55961;52.156;20.942;2023-02-28T14:20:36;18.50;;;8.65;;
68923;SDS011;55961;52.156;20.942;2023-02-28T14:23:12;17.52;;;8.40;;
68923;SDS011;55961;52.156;20.942;2023-02-28T14:25:43;17.08;;;7.63;;
68923;SDS011;55961;52.156;20.942;2023-02-28T14:31:09;15.77;;;7.93;;
68923;SDS011;55961;52.156;20.942;2023-02-28T14:36:44;17.55;;;8.95;;
68923;SDS011;55961;52.156;20.942;2023-02-28T14:39:14;15.30;;;8.85;;
68923;SDS011;55961;52.156;20.942;2023-02-28T14:41:44;17.63;;;8.57;;
68923;SDS011;55961;52.156;20.942;2023-02-28T14:44:21;19.33;;;10.07;;
68923;SDS011;55961;52.156;20.942;2023-02-28T14:46:49;16.77;;;7.72;;
68923;SDS011;55961;52.156;20.942;2023-02-28T14:49:29;15.48;;;8.25;;
68923;SDS011;55961;52.156;20.942;2023-02-28T14:54:40;16.67;;;8.15;;
68923;SDS011;55961;52.156;20.942;2023-02-28T14:57:19;16.87;;;8.07;;
68923;SDS011;55961;52.156;20.942;2023-02-28T15:02:37;14.20;;;7.72;;
68923;SDS011;55961;52.156;20.942;2023-02-28T15:07:44;18.48;;;7.05;;
68923;SDS011;55961;52.156;20.942;2023-02-28T15:10:19;17.50;;;8.20;;
68923;SDS011;55961;52.156;20.942;2023-02-28T15:12:49;16.08;;;6.80;;
68923;SDS011;55961;52.156;20.942;2023-02-28T15:15:19;16.70;;;8.85;;
68923;SDS011;55961;52.156;20.942;2023-02-28T15:17:46;14.15;;;7.63;;
68923;SDS011;55961;52.156;20.942;2023-02-28T15:20:16;18.67;;;7.35;;
68923;SDS011;55961;52.156;20.942;2023-02-28T15:22:43;17.90;;;7.30;;
68923;SDS011;55961;52.156;20.942;2023-02-28T15:25:13;19.45;;;8.07;;
68923;SDS011;55961;52.156;20.942;2023-02-28T15:27:44;52.78;;;17.98;;
68923;SDS011;55961;52.156;20.942;2023-02-28T15:30:17;37.72;;;14.90;;
68923;SDS011;55961;52.156;20.942;2023-02-28T15:33:01;30.58;;;14.05;;
68923;SDS011;55961;52.156;20.942;2023-02-28T15:35:43;20.23;;;9.80;;
68923;SDS011;55961;52.156;20.942;2023-02-28T15:40:53;15.73;;;8.23;;
68923;SDS011;55961;52.156;20.942;2023-02-28T15:43:30;17.70;;;7.93;;
68923;SDS011;55961;52.156;20.942;2023-02-28T15:46:02;16.70;;;9.30;;
68923;SDS011;55961;52.156;20.942;2023-02-28T15:51:07;29.08;;;10.75;;
68923;SDS011;55961;52.156;20.942;2023-02-28T15:53:36;19.48;;;10.80;;
68923;SDS011;55961;52.156;20.942;2023-02-28T15:56:27;19.55;;;8.95;;
68923;SDS011;55961;52.156;20.942;2023-02-28T15:59:21;20.67;;;9.90;;
68923;SDS011;55961;52.156;20.942;2023-02-28T16:04:56;50.97;;;21.05;;
68923;SDS011;55961;52.156;20.942;2023-02-28T16:07:32;30.73;;;15.35;;
68923;SDS011;55961;52.156;20.942;2023-02-28T16:09:59;33.35;;;14.05;;
68923;SDS011;55961;52.156;20.942;2023-02-28T16:12:28;37.55;;;16.60;;
68923;SDS011;55961;52.156;20.942;2023-02-28T16:14:57;32.33;;;17.37;;
68923;SDS011;55961;52.156;20.942;2023-02-28T16:17:27;33.90;;;19.52;;
68923;SDS011;55961;52.156;20.942;2023-02-28T16:19:57;31.65;;;16.98;;
68923;SDS011;55961;52.156;20.942;2023-02-28T16:22:25;26.52;;;15.20;;
68923;SDS011;55961;52.156;20.942;2023-02-28T16:24:51;24.05;;;12.63;;
68923;SDS011;55961;52.156;20.942;2023-02-28T16:27:21;25.40;;;12.37;;
68923;SDS011;55961;52.156;20.942;2023-02-28T16:30:00;24.83;;;12.05;;
68923;SDS011;55961;52.156;20.942;2023-02-28T16:32:28;24.65;;;12.30;;
68923;SDS011;55961;52.156;20.942;2023-02-28T16:34:56;31.52;;;13.90;;
68923;SDS011;55961;52.156;20.942;2023-02-28T16:37:22;35.10;;;15.18;;
68923;SDS011;55961;52.156;20.942;2023-02-28T16:39:48;36.43;;;15.97;;
68923;SDS011;55961;52.156;20.942;2023-02-28T16:42:23;34.40;;;15.93;;
68923;SDS011;55961;52.156;20.942;2023-02-28T16:44:52;35.95;;;16.65;;
68923;SDS011;55961;52.156;20.942;2023-02-28T16:47:19;43.17;;;17.80;;
68923;SDS011;55961;52.156;20.942;2023-02-28T16:49:46;46.73;;;19.30;;
68923;SDS011;55961;52.156;20.942;2023-02-28T16:52:13;51.28;;;19.83;;
68923;SDS011;55961;52.156;20.942;2023-02-28T16:54:39;38.72;;;18.20;;
68923;SDS011;55961;52.156;20.942;2023-02-28T16:57:08;40.72;;;19.08;;
68923;SDS011;55961;52.156;20.942;2023-02-28T16:59:48;45.20;;;19.50;;
68923;SDS011;55961;52.156;20.942;2023-02-28T17:02:30;46.57;;;21.10;;
68923;SDS011;55961;52.156;20.942;2023-02-28T17:04:56;40.50;;;19.83;;
68923;SDS011;55961;52.156;20.942;2023-02-28T17:07:22;48.97;;;23.42;;
68923;SDS011;55961;52.156;20.942;2023-02-28T17:09:48;54.90;;;26.45;;
68923;SDS011;55961;52.156;20.942;2023-02-28T17:12:14;53.15;;;26.70;;
68923;SDS011;55961;52.156;20.942;2023-02-28T17:14:40;63.40;;;25.40;;
68923;SDS011;55961;52.156;20.942;2023-02-28T17:17:06;58.50;;;27.85;;
68923;SDS011;55961;52.156;20.942;2023-02-28T17:19:35;53.17;;;26.02;;
68923;SDS011;55961;52.156;20.942;2023-02-28T17:22:02;64.03;;;29.88;;